createdAt,value
2023-06-24T00:02:40.398Z,17.8
2023-06-24T00:07:58.878Z,18
2023-06-24T00:12:58.889Z,17.9
2023-06-24T00:18:40.327Z,17.8
2023-06-24T00:23:40.364Z,17.6
2023-06-24T00:28:58.882Z,17.5
2023-06-24T00:34:40.360Z,17.4
2023-06-24T00:39:40.353Z,17.3
2023-06-24T00:44:58.903Z,17.3
2023-06-24T00:50:40.326Z,17.2
2023-06-24T00:55:40.340Z,17.1
2023-06-24T01:00:40.400Z,17.1
2023-06-24T01:05:58.927Z,17
2023-06-24T01:11:40.386Z,17
2023-06-24T01:16:58.891Z,17
2023-06-24T01:21:58.906Z,16.9
2023-06-24T01:27:40.353Z,16.8
2023-06-24T01:32:40.632Z,16.7
2023-06-24T01:37:58.886Z,16.7
2023-06-24T01:42:58.885Z,16.7
2023-06-24T01:48:40.389Z,16.7
2023-06-24T01:53:58.954Z,16.6
2023-06-24T01:59:40.355Z,16.5
2023-06-24T02:04:40.360Z,16.4
2023-06-24T02:14:40.403Z,16.5
2023-06-24T02:19:58.894Z,16.5
2023-06-24T02:24:58.914Z,16.4
2023-06-24T02:35:40.387Z,16.2
2023-06-24T02:40:40.398Z,16.3
2023-06-24T02:45:59.120Z,16.1
2023-06-24T02:50:58.915Z,15.9
2023-06-24T02:56:40.375Z,16
2023-06-24T03:01:59.010Z,15.9
2023-06-24T03:06:58.939Z,15.9
2023-06-24T03:12:40.386Z,16
2023-06-24T03:17:40.461Z,15.9
2023-06-24T03:22:58.909Z,15.3
2023-06-24T03:27:58.913Z,15.3
2023-06-24T03:32:58.955Z,15.4
2023-06-24T03:38:40.420Z,15.5
2023-06-24T03:43:40.474Z,15.5
2023-06-24T03:48:58.936Z,15.4
2023-06-24T03:53:58.982Z,15.4
2023-06-24T04:04:58.954Z,15.1
2023-06-24T04:09:58.948Z,15.1
2023-06-24T04:20:40.405Z,14.9
2023-06-24T04:25:40.421Z,15.1
2023-06-24T04:30:59.299Z,15
2023-06-24T04:36:40.404Z,15
2023-06-24T04:41:58.944Z,15.2
2023-06-24T04:46:59.053Z,15.3
2023-06-24T04:52:40.411Z,15.5
2023-06-24T04:57:40.477Z,15.9
2023-06-24T05:02:59.037Z,16.1
2023-06-24T05:07:59.041Z,16.4
2023-06-24T05:13:40.411Z,16.6
2023-06-24T05:18:40.463Z,16.5
2023-06-24T05:23:58.956Z,16.6
2023-06-24T05:28:58.957Z,17.1
2023-06-24T05:33:58.951Z,17.9
2023-06-24T05:39:40.426Z,19.1
2023-06-24T05:49:58.976Z,18.3
2023-06-24T05:54:59.049Z,17
2023-06-24T06:00:40.442Z,17.7
2023-06-24T06:05:40.436Z,16.8
2023-06-24T06:10:59.005Z,16.1
2023-06-24T06:16:58.958Z,17.1
2023-06-24T06:21:58.988Z,16.6
2023-06-24T06:27:40.473Z,16.5
2023-06-24T06:32:59.001Z,17.2
2023-06-24T06:37:58.996Z,16.4
2023-06-24T06:43:40.469Z,16.4
2023-06-24T06:48:58.991Z,16.6
2023-06-24T06:54:40.438Z,16
2023-06-24T06:59:40.452Z,16
2023-06-24T07:04:40.494Z,16.2
2023-06-24T07:09:40.615Z,15.7
2023-06-24T07:14:58.976Z,15.4
2023-06-24T07:19:58.988Z,15.6
2023-06-24T07:24:59.024Z,15.4
2023-06-24T07:30:40.499Z,15.3
2023-06-24T07:35:58.985Z,15.8
2023-06-24T07:41:40.453Z,15.6
2023-06-24T07:46:40.505Z,15.6
2023-06-24T07:51:40.470Z,15.6
2023-06-24T07:56:40.537Z,15.7
2023-06-24T08:01:59.009Z,15.4
2023-06-24T08:06:59.047Z,15.5
2023-06-24T08:12:40.489Z,15.7
2023-06-24T08:17:59.006Z,15.6
2023-06-24T08:22:59.053Z,16
2023-06-24T08:28:40.477Z,15.4
2023-06-24T08:33:40.486Z,15.5
2023-06-24T08:38:40.486Z,16.1
2023-06-24T08:43:40.497Z,15.7
2023-06-24T08:48:59.192Z,15.4
2023-06-24T08:54:40.551Z,15.9
2023-06-24T08:59:40.509Z,15.7
2023-06-24T09:05:40.515Z,15.7
2023-06-24T09:11:02.573Z,15.7
2023-06-24T09:16:40.507Z,15.8
2023-06-24T09:21:40.522Z,16.1
2023-06-24T09:26:59.100Z,15.2
2023-06-24T09:32:40.542Z,15.9
2023-06-24T09:37:40.515Z,15.7
2023-06-24T09:42:40.531Z,15.6
2023-06-24T09:47:59.225Z,14.9
2023-06-24T09:53:40.532Z,15.2
2023-06-24T09:58:40.548Z,15.4
2023-06-24T10:03:59.149Z,15.6
2023-06-24T10:09:40.555Z,14.6
2023-06-24T10:14:40.541Z,15.2
2023-06-24T10:19:40.587Z,15.7
2023-06-24T10:24:59.105Z,14.7
2023-06-24T10:29:59.090Z,14.7
2023-06-24T10:35:40.552Z,15.6
2023-06-24T10:40:59.129Z,14.9
2023-06-24T10:45:59.127Z,15.4
2023-06-24T10:51:40.572Z,15.5
2023-06-24T10:56:59.080Z,15.7
2023-06-24T11:01:59.155Z,14.9
2023-06-24T11:07:40.550Z,15.9
2023-06-24T11:12:40.594Z,15.1
2023-06-24T11:17:59.117Z,15.1
2023-06-24T11:23:40.610Z,14.4
2023-06-24T11:28:59.103Z,15.2
2023-06-24T11:34:40.559Z,14.7
2023-06-24T11:39:40.581Z,13.4
2023-06-24T11:49:59.137Z,14.3
2023-06-24T11:54:59.152Z,14.4
2023-06-24T12:05:40.589Z,14.6
2023-06-24T12:10:40.810Z,14.7
2023-06-24T12:15:59.130Z,13.7
2023-06-24T12:21:40.597Z,13.2
2023-06-24T12:26:59.139Z,14
2023-06-24T12:32:09.190Z,13.4
2023-06-24T12:37:40.618Z,13.6
2023-06-24T12:42:40.633Z,14.7
2023-06-24T12:47:40.669Z,15
2023-06-24T12:52:59.125Z,15.2
2023-06-24T12:57:59.226Z,14.7
2023-06-24T13:03:40.640Z,14.5
2023-06-24T13:08:40.639Z,13.8
2023-06-24T13:13:59.175Z,13.5
2023-06-24T13:18:59.237Z,14.2
2023-06-24T13:24:40.645Z,14.6
2023-06-24T13:29:40.635Z,14.9
2023-06-24T13:34:40.741Z,13.9
2023-06-24T13:39:59.171Z,13.8
2023-06-24T13:49:59.226Z,14.6
2023-06-24T13:55:40.648Z,14.4
2023-06-24T14:00:40.703Z,14
2023-06-24T14:05:59.154Z,14.2
2023-06-24T14:10:59.213Z,13.7
2023-06-24T14:16:40.675Z,13.7
2023-06-24T14:21:59.193Z,14.1
2023-06-24T14:26:59.216Z,14.1
2023-06-24T14:32:02.573Z,12.9
2023-06-24T14:37:40.668Z,14.1
2023-06-24T14:42:40.667Z,12.5
2023-06-24T14:48:40.666Z,12.7
2023-06-24T14:53:40.703Z,12.5
2023-06-24T14:58:59.240Z,14.1
2023-06-24T15:04:40.687Z,14.5
2023-06-24T15:09:40.696Z,13
2023-06-24T15:14:40.692Z,14.3
2023-06-24T15:19:59.245Z,13.7
2023-06-24T15:25:40.664Z,12.8
2023-06-24T15:30:40.713Z,12.8
2023-06-24T15:35:59.253Z,13.3
2023-06-24T15:41:40.694Z,14.1
2023-06-24T15:46:59.235Z,13.9
2023-06-24T15:52:40.693Z,13.1
2023-06-24T15:57:40.685Z,13.2
2023-06-24T16:02:40.787Z,12.5
2023-06-24T16:07:59.249Z,12.9
2023-06-24T16:13:40.711Z,13.5
2023-06-24T16:18:40.723Z,12.8
2023-06-24T16:23:59.245Z,13.5
2023-06-24T16:28:59.264Z,13.1
2023-06-24T16:34:40.714Z,13.5
2023-06-24T16:39:59.282Z,13.1
2023-06-24T16:49:59.276Z,13.9
2023-06-24T16:55:40.711Z,13.4
2023-06-24T17:00:40.854Z,12.9
2023-06-24T17:05:59.259Z,13
2023-06-24T17:11:40.758Z,13.4
2023-06-24T17:16:59.293Z,13
2023-06-24T17:21:59.334Z,13.9
2023-06-24T17:27:40.757Z,13.3
2023-06-24T17:32:59.386Z,14
2023-06-24T17:38:40.730Z,13.4
2023-06-24T17:43:40.734Z,13.6
2023-06-24T17:48:59.305Z,13
2023-06-24T17:53:59.334Z,13.9
2023-06-24T17:59:40.755Z,13.3
2023-06-24T18:04:59.340Z,12.6
2023-06-24T18:09:59.318Z,12.6
2023-06-24T18:15:40.776Z,13.6
2023-06-24T18:20:59.297Z,13.8
2023-06-24T18:26:40.768Z,14.1
2023-06-24T18:31:59.318Z,14.4
2023-06-24T18:36:59.563Z,14.3
2023-06-24T18:41:59.400Z,14.4
2023-06-24T18:47:40.803Z,14.1
2023-06-24T18:52:59.343Z,14.5
2023-06-24T18:57:59.346Z,13.8
2023-06-24T19:03:15.192Z,14.1
2023-06-24T19:08:40.818Z,13.9
2023-06-24T19:13:59.334Z,14.2
2023-06-24T19:18:59.327Z,14.3
2023-06-24T19:24:40.794Z,14.3
2023-06-24T19:29:59.674Z,14.5
2023-06-24T19:35:40.782Z,14.3
2023-06-24T19:40:40.786Z,14.3
2023-06-24T19:45:40.837Z,14.5
2023-06-24T19:50:40.917Z,14.6
2023-06-24T19:55:59.326Z,14.6
2023-06-24T20:00:59.341Z,14.5
2023-06-24T20:05:59.360Z,14.8
2023-06-24T20:10:59.351Z,14.3
2023-06-24T20:16:40.801Z,14.2
2023-06-24T20:21:40.838Z,14
2023-06-24T20:26:59.351Z,13.1
2023-06-24T20:32:40.836Z,13
2023-06-24T20:37:59.346Z,12.9
2023-06-24T20:42:59.365Z,13.1
2023-06-24T20:47:59.423Z,13.1
2023-06-24T20:52:59.365Z,13.4
2023-06-24T20:57:59.538Z,13.3
2023-06-24T21:03:40.917Z,13.3
2023-06-24T21:08:59.374Z,13.1
2023-06-24T21:14:40.823Z,12.1
2023-06-24T21:19:59.371Z,12.2
2023-06-24T21:25:40.841Z,13.1
2023-06-24T21:30:41.107Z,13.7
2023-06-24T21:36:01.275Z,13.7
2023-06-24T21:40:59.373Z,14.1
2023-06-24T21:45:59.377Z,14.2
2023-06-24T21:51:40.776Z,14
2023-06-24T21:56:40.858Z,14.1
2023-06-24T22:01:59.395Z,14.4
2023-06-24T22:07:40.835Z,14.3
2023-06-24T22:12:40.866Z,14.1
2023-06-24T22:17:40.874Z,13.9
2023-06-24T22:22:59.376Z,13.8
2023-06-24T22:27:59.397Z,14.4
2023-06-24T22:32:59.454Z,14.7
2023-06-24T22:38:40.859Z,14.6
2023-06-24T22:43:40.871Z,13.6
2023-06-24T22:48:59.415Z,14.5
2023-06-24T22:54:40.846Z,14.6
2023-06-24T22:59:59.411Z,14.8
2023-06-24T23:04:59.430Z,14.9
2023-06-24T23:10:40.871Z,15
2023-06-24T23:15:59.418Z,14.9
2023-06-24T23:21:40.848Z,14.2
2023-06-24T23:26:40.910Z,14.3
2023-06-24T23:31:41.050Z,14.6
2023-06-24T23:36:59.395Z,15
2023-06-24T23:42:40.879Z,14.8
2023-06-24T23:47:40.946Z,15
2023-06-24T23:53:00.871Z,15.4
2023-06-24T23:57:59.449Z,15.9
